Time;durP1;ratioP1;P1;durP2;ratioP2;P2;SDS_P1;SDS_P2;PMS_P1;PMS_P2;Temp;Humidity;BMP_temperature;BMP_pressure;BME280_temperature;BME280_humidity;BME280_pressure;Samples;Min_cycle;Max_cycle;Signal;HPM_P1;HPM_P2
2024/04/23 00:02:03;;;;;;;3.40;0.80;;;4.20;99.90;;;;;;5370490;26;20011;-70
2024/04/23 00:04:29;;;;;;;1.52;0.50;;;4.10;99.90;;;;;;5364281;26;20395;-67
2024/04/23 00:06:56;;;;;;;5.32;0.80;;;4.10;99.90;;;;;;5369889;26;20413;-72
2024/04/23 00:09:22;;;;;;;1.60;1.02;;;4.00;99.90;;;;;;5367818;26;20000;-67
2024/04/23 00:11:47;;;;;;;3.13;0.80;;;4.00;99.90;;;;;;5339006;26;20337;-69
2024/04/23 00:14:13;;;;;;;1.65;0.90;;;4.00;99.90;;;;;;5368427;26;20440;-71
2024/04/23 00:16:38;;;;;;;1.55;0.52;;;4.00;99.90;;;;;;5369064;26;20431;-70
2024/04/23 00:19:04;;;;;;;1.73;0.70;;;3.90;99.90;;;;;;5339906;26;20522;-71
2024/04/23 00:21:29;;;;;;;2.28;1.10;;;4.00;99.90;;;;;;5368538;26;19992;-71
2024/04/23 00:23:55;;;;;;;2.05;0.70;;;3.90;99.90;;;;;;5364452;26;20000;-69
2024/04/23 00:26:20;;;;;;;1.98;0.65;;;4.00;99.90;;;;;;5369010;26;20032;-70
2024/04/23 00:28:46;;;;;;;1.58;0.90;;;3.90;99.90;;;;;;5369966;26;19996;-71
2024/04/23 00:31:11;;;;;;;2.13;0.40;;;3.90;99.90;;;;;;5365288;26;20070;-69
2024/04/23 00:33:37;;;;;;;1.73;0.57;;;3.90;99.90;;;;;;5369719;26;20684;-68
2024/04/23 00:36:03;;;;;;;1.67;0.80;;;3.90;99.90;;;;;;5367767;26;20020;-71
2024/04/23 00:38:28;;;;;;;2.95;1.10;;;4.00;99.90;;;;;;5369337;26;20023;-71
2024/04/23 00:40:54;;;;;;;1.33;0.60;;;3.90;99.90;;;;;;5367053;26;20000;-72
2024/04/23 00:43:19;;;;;;;3.35;0.60;;;3.90;99.90;;;;;;5365779;26;20028;-71
2024/04/23 00:45:47;;;;;;;1.38;0.80;;;3.90;99.90;;;;;;5369793;26;20000;-71
2024/04/23 00:48:15;;;;;;;2.70;0.70;;;3.90;99.90;;;;;;5360321;26;20376;-72
2024/04/23 00:50:41;;;;;;;1.73;0.77;;;3.90;99.90;;;;;;5369070;26;20011;-70
2024/04/23 00:53:07;;;;;;;1.50;0.55;;;3.90;99.90;;;;;;5370322;26;20465;-73
2024/04/23 00:55:34;;;;;;;3.50;1.13;;;3.80;99.90;;;;;;5367549;26;20016;-73
2024/04/23 00:58:02;;;;;;;5.60;1.27;;;3.80;99.90;;;;;;5338076;26;20051;-72
2024/04/23 01:00:27;;;;;;;5.28;0.80;;;3.80;99.90;;;;;;5363538;26;20010;-73
2024/04/23 01:02:53;;;;;;;1.40;0.40;;;3.80;99.90;;;;;;5367694;26;20000;-71
2024/04/23 01:05:19;;;;;;;2.50;0.70;;;3.80;99.90;;;;;;5364623;26;20047;-70
2024/04/23 01:07:44;;;;;;;2.30;1.08;;;3.80;99.90;;;;;;5361624;26;20548;-69
2024/04/23 01:10:10;;;;;;;2.58;0.85;;;3.80;99.90;;;;;;5366691;26;20010;-70
2024/04/23 01:12:35;;;;;;;2.65;0.80;;;3.80;99.90;;;;;;5369134;26;20870;-70
2024/04/23 01:15:01;;;;;;;2.13;0.63;;;3.80;99.90;;;;;;5368502;26;20000;-71
2024/04/23 01:17:27;;;;;;;1.95;0.50;;;3.80;99.90;;;;;;5367294;26;19996;-71
2024/04/23 01:20:00;;;;;;;1.45;0.65;;;3.80;99.90;;;;;;5367827;26;20014;-71
2024/04/23 01:22:37;;;;;;;1.88;0.90;;;3.70;99.90;;;;;;5361076;26;20040;-69
2024/04/23 01:25:08;;;;;;;2.92;0.95;;;3.70;99.90;;;;;;5367376;26;20000;-75
2024/04/23 01:27:34;;;;;;;1.13;0.70;;;3.70;99.90;;;;;;5335273;26;20027;-71
2024/04/23 01:30:00;;;;;;;2.17;0.77;;;3.70;99.90;;;;;;5368195;26;20004;-67
2024/04/23 01:32:27;;;;;;;2.00;0.70;;;3.60;99.90;;;;;;5366940;26;20446;-71
2024/04/23 01:34:54;;;;;;;2.25;0.88;;;3.60;99.90;;;;;;5366682;26;20441;-70
2024/04/23 01:37:22;;;;;;;3.72;1.13;;;3.50;99.90;;;;;;5366824;26;20539;-71
2024/04/23 01:39:48;;;;;;;1.60;0.75;;;3.50;99.90;;;;;;5368141;26;20052;-67
2024/04/23 01:42:15;;;;;;;2.97;1.00;;;3.40;99.90;;;;;;5363439;26;20479;-73
2024/04/23 01:44:41;;;;;;;4.03;1.05;;;3.30;99.90;;;;;;5365470;26;20019;-70
2024/04/23 01:47:06;;;;;;;1.65;0.70;;;3.30;99.90;;;;;;5365047;26;20471;-71
2024/04/23 01:49:32;;;;;;;3.60;1.08;;;3.40;99.90;;;;;;5362813;26;20000;-69
2024/04/23 01:51:58;;;;;;;1.98;0.80;;;3.40;99.90;;;;;;5335309;26;20096;-70
2024/04/23 01:54:24;;;;;;;3.70;1.65;;;3.30;99.90;;;;;;5366232;26;20000;-70
2024/04/23 01:56:49;;;;;;;1.33;0.70;;;3.40;99.90;;;;;;5336892;26;20012;-68
2024/04/23 01:59:15;;;;;;;1.80;0.95;;;3.30;99.90;;;;;;5364562;26;20000;-71
2024/04/23 02:01:44;;;;;;;1.75;1.00;;;3.30;99.90;;;;;;5335037;26;20028;-69
2024/04/23 02:04:12;;;;;;;1.27;0.50;;;3.30;99.90;;;;;;5367516;26;20020;-69
2024/04/23 02:06:37;;;;;;;1.95;0.98;;;3.20;99.90;;;;;;5331279;26;20074;-68
2024/04/23 02:09:03;;;;;;;1.83;0.80;;;3.20;99.90;;;;;;5365161;26;20008;-71
2024/04/23 02:11:30;;;;;;;2.20;1.15;;;3.10;99.90;;;;;;5365228;26;20018;-73
2024/04/23 02:13:55;;;;;;;4.50;1.38;;;3.10;99.90;;;;;;5368917;26;20010;-71
2024/04/23 02:16:21;;;;;;;2.30;0.95;;;3.00;99.90;;;;;;5335364;26;20016;-71
2024/04/23 02:18:46;;;;;;;2.92;1.40;;;3.00;99.90;;;;;;5366347;26;20742;-69
2024/04/23 02:21:12;;;;;;;1.30;1.10;;;3.00;99.90;;;;;;5364107;26;20001;-71
2024/04/23 02:23:37;;;;;;;1.48;0.70;;;2.90;99.90;;;;;;5362766;26;20417;-73
2024/04/23 02:26:03;;;;;;;2.42;1.10;;;2.80;99.90;;;;;;5331971;26;19996;-68
2024/04/23 02:28:29;;;;;;;3.55;0.95;;;2.70;99.90;;;;;;5362520;26;20467;-71
2024/04/23 02:30:54;;;;;;;3.28;1.20;;;2.70;99.90;;;;;;5337189;26;20047;-71
2024/04/23 02:33:20;;;;;;;4.13;1.60;;;2.70;99.90;;;;;;5360157;26;20106;-73
2024/04/23 02:35:45;;;;;;;2.30;1.05;;;2.60;99.90;;;;;;5365758;26;20044;-70
2024/04/23 02:38:11;;;;;;;4.18;1.40;;;2.60;99.90;;;;;;5362942;26;19995;-70
2024/04/23 02:40:36;;;;;;;4.13;1.33;;;2.50;99.90;;;;;;5367946;26;20391;-71
2024/04/23 02:43:02;;;;;;;3.85;1.35;;;2.50;99.90;;;;;;5362183;26;20003;-71
2024/04/23 02:45:27;;;;;;;4.43;1.48;;;2.50;99.90;;;;;;5362011;26;20008;-68
2024/04/23 02:47:53;;;;;;;4.43;1.50;;;2.40;99.90;;;;;;5365479;26;19996;-70
2024/04/23 02:50:18;;;;;;;4.03;1.30;;;2.40;99.90;;;;;;5352761;26;20084;-69
2024/04/23 02:52:44;;;;;;;6.43;1.42;;;2.40;99.90;;;;;;5367465;26;20000;-70
2024/04/23 02:55:09;;;;;;;3.13;1.60;;;2.30;99.90;;;;;;5363237;26;20346;-74
2024/04/23 02:57:38;;;;;;;2.75;0.98;;;2.30;99.90;;;;;;5333097;26;20005;-72
2024/04/23 03:00:04;;;;;;;2.80;1.10;;;2.30;99.90;;;;;;5366415;26;20107;-70
2024/04/23 03:02:30;;;;;;;2.95;1.10;;;2.30;99.90;;;;;;5362541;26;21491;-70
2024/04/23 03:04:55;;;;;;;3.53;1.77;;;2.30;99.90;;;;;;5361412;26;20805;-72
2024/04/23 03:07:21;;;;;;;2.60;1.10;;;2.30;99.90;;;;;;5358035;26;20396;-72
2024/04/23 03:09:46;;;;;;;6.32;1.52;;;2.30;99.90;;;;;;5366249;26;20000;-70
2024/04/23 03:12:12;;;;;;;4.20;1.40;;;2.30;99.90;;;;;;5357655;26;20453;-71
2024/04/23 03:14:37;;;;;;;3.40;1.52;;;2.30;99.90;;;;;;5359155;26;19993;-69
2024/04/23 03:17:03;;;;;;;2.97;1.40;;;2.20;99.90;;;;;;5366400;26;20040;-71
2024/04/23 03:19:28;;;;;;;2.92;1.23;;;2.20;99.90;;;;;;5360097;26;20349;-71
2024/04/23 03:21:55;;;;;;;2.22;1.27;;;2.20;99.90;;;;;;5357703;26;20337;-70
2024/04/23 03:24:21;;;;;;;2.83;1.35;;;2.20;99.90;;;;;;5362553;26;20011;-70
2024/04/23 03:26:47;;;;;;;5.18;1.20;;;2.20;99.90;;;;;;5368160;26;19997;-71
2024/04/23 03:29:12;;;;;;;2.80;1.17;;;2.20;99.90;;;;;;5368654;26;20015;-69
2024/04/23 03:31:38;;;;;;;3.40;1.10;;;2.10;99.90;;;;;;5369982;26;20016;-69
2024/04/23 03:34:03;;;;;;;4.57;1.30;;;2.10;99.90;;;;;;5369794;26;19993;-74
2024/04/23 03:36:29;;;;;;;3.75;1.42;;;2.10;99.90;;;;;;5368392;26;20015;-72
2024/04/23 03:38:54;;;;;;;4.47;1.77;;;2.10;99.90;;;;;;5368389;26;20000;-71
2024/04/23 03:41:20;;;;;;;4.78;1.85;;;2.10;99.90;;;;;;5367043;26;20006;-70
2024/04/23 03:43:45;;;;;;;4.13;1.90;;;2.00;99.90;;;;;;5367065;26;20005;-70
2024/04/23 03:46:11;;;;;;;6.13;1.95;;;2.00;99.90;;;;;;5369652;26;20008;-71
2024/04/23 03:48:37;;;;;;;10.73;2.60;;;2.00;99.90;;;;;;5367266;26;20363;-71
2024/04/23 03:51:02;;;;;;;5.15;1.42;;;2.00;99.90;;;;;;5374788;26;20000;-75
2024/04/23 03:53:28;;;;;;;4.00;1.83;;;2.00;99.90;;;;;;5372550;26;19996;-70
2024/04/23 03:55:53;;;;;;;3.65;1.48;;;2.00;99.90;;;;;;5374813;26;20357;-72
2024/04/23 03:58:19;;;;;;;4.32;1.70;;;2.00;99.90;;;;;;5371934;26;20004;-71
2024/04/23 04:00:44;;;;;;;4.75;2.47;;;1.90;99.90;;;;;;5369983;26;20004;-72
2024/04/23 04:06:06;;;;;;;5.85;2.22;;;1.90;99.90;;;;;;5368425;26;20082;-72
2024/04/23 04:08:33;;;;;;;5.07;2.53;;;1.80;99.90;;;;;;5362344;26;20008;-71
2024/04/23 04:10:59;;;;;;;5.72;2.15;;;1.90;99.90;;;;;;5370456;26;20008;-71
2024/04/23 04:13:25;;;;;;;5.97;1.90;;;1.80;99.90;;;;;;5368439;26;20008;-72
2024/04/23 04:15:51;;;;;;;3.60;1.73;;;1.80;99.90;;;;;;5370653;26;20000;-71
2024/04/23 04:18:17;;;;;;;4.20;1.73;;;1.80;99.90;;;;;;5368828;26;20008;-70
2024/04/23 04:20:42;;;;;;;6.32;2.17;;;1.80;99.90;;;;;;5338011;26;20049;-69
2024/04/23 04:23:09;;;;;;;4.50;2.05;;;1.80;99.90;;;;;;5370036;26;20004;-71
2024/04/23 04:25:34;;;;;;;6.38;3.00;;;1.80;99.90;;;;;;5365105;26;20081;-74
2024/04/23 04:28:00;;;;;;;5.13;2.10;;;1.80;99.90;;;;;;5368425;26;20560;-70
2024/04/23 04:30:25;;;;;;;5.82;2.47;;;1.90;99.90;;;;;;5368391;26;20015;-69
2024/04/23 04:32:51;;;;;;;4.65;2.17;;;1.80;99.90;;;;;;5370659;26;19996;-69
2024/04/23 04:35:17;;;;;;;12.40;2.10;;;1.80;99.90;;;;;;5367793;26;19996;-70
2024/04/23 04:37:42;;;;;;;7.15;2.40;;;1.80;99.90;;;;;;5336729;26;20005;-71
2024/04/23 04:40:08;;;;;;;5.20;2.50;;;1.80;99.90;;;;;;5365073;26;20000;-71
2024/04/23 04:42:34;;;;;;;8.90;2.45;;;1.80;99.90;;;;;;5366732;26;20004;-70
2024/04/23 04:44:59;;;;;;;4.22;2.45;;;1.80;99.90;;;;;;5361244;26;20849;-67
2024/04/23 04:47:25;;;;;;;3.72;1.70;;;1.80;99.90;;;;;;5367931;26;20006;-71
2024/04/23 04:49:50;;;;;;;4.35;2.25;;;1.80;99.90;;;;;;5366520;26;20000;-71
2024/04/23 04:52:16;;;;;;;4.90;2.03;;;1.80;99.90;;;;;;5366183;26;19997;-71
2024/04/23 04:54:41;;;;;;;7.00;2.47;;;1.80;99.90;;;;;;5363660;26;20465;-69
2024/04/23 04:57:07;;;;;;;6.03;2.40;;;1.80;99.90;;;;;;5370335;26;20574;-72
2024/04/23 04:59:32;;;;;;;4.78;2.10;;;1.90;99.90;;;;;;5365967;26;20880;-71
2024/04/23 05:01:58;;;;;;;6.75;2.38;;;1.90;99.90;;;;;;5366478;26;20103;-71
2024/04/23 05:04:24;;;;;;;5.22;2.25;;;1.90;99.90;;;;;;5330293;26;20087;-73
2024/04/23 05:06:49;;;;;;;6.55;2.40;;;1.90;99.90;;;;;;5371916;26;20005;-71
2024/04/23 05:09:15;;;;;;;5.47;2.25;;;1.90;99.90;;;;;;5366454;26;20015;-68
2024/04/23 05:11:42;;;;;;;4.80;2.17;;;1.90;99.90;;;;;;5366799;26;20492;-72
2024/04/23 05:14:08;;;;;;;7.00;1.92;;;2.00;99.90;;;;;;5368472;26;20008;-70
2024/04/23 05:16:33;;;;;;;5.15;2.58;;;2.00;99.90;;;;;;5361947;26;20071;-70
2024/04/23 05:18:59;;;;;;;5.03;2.00;;;2.00;99.90;;;;;;5366444;26;20008;-71
2024/04/23 05:21:25;;;;;;;5.35;2.28;;;2.00;99.90;;;;;;5364823;26;20400;-72
2024/04/23 05:23:50;;;;;;;4.15;2.08;;;2.00;99.90;;;;;;5365167;26;20020;-72
2024/04/23 05:26:16;;;;;;;10.25;2.38;;;2.10;99.90;;;;;;5361775;26;20032;-74
2024/04/23 05:28:42;;;;;;;5.38;2.55;;;2.20;99.90;;;;;;5363517;26;20000;-68
2024/04/23 05:33:51;;;;;;;7.50;2.53;;;2.30;99.90;;;;;;5365732;26;20085;-70
2024/04/23 05:36:18;;;;;;;5.82;2.50;;;2.40;99.90;;;;;;5365739;26;20406;-69
2024/04/23 05:38:43;;;;;;;6.15;2.70;;;2.50;99.90;;;;;;5365356;26;20004;-70
2024/04/23 05:41:09;;;;;;;5.38;2.17;;;2.60;99.90;;;;;;5365905;26;20000;-71
2024/04/23 05:43:34;;;;;;;5.05;2.67;;;2.60;99.90;;;;;;5367657;26;20012;-71
2024/04/23 05:46:00;;;;;;;5.47;2.60;;;2.70;99.90;;;;;;5360237;26;19997;-73
2024/04/23 05:49:03;;;;;;;6.25;3.13;;;2.70;99.90;;;;;;5371639;26;20012;-71
2024/04/23 05:52:06;;;;;;;4.40;2.33;;;2.80;99.90;;;;;;5360816;26;20431;-69
2024/04/23 05:55:09;;;;;;;8.43;2.08;;;3.10;99.90;;;;;;5364057;26;20019;-72
2024/04/23 05:57:35;;;;;;;4.45;2.35;;;3.80;99.90;;;;;;5356745;26;20011;-68
2024/04/23 06:00:01;;;;;;;2.92;1.80;;;5.00;99.90;;;;;;5365342;26;20001;-71
2024/04/23 06:02:26;;;;;;;5.05;1.90;;;6.20;99.90;;;;;;5365470;26;20008;-71
2024/04/23 06:04:52;;;;;;;2.70;1.50;;;7.40;99.90;;;;;;5358460;26;20073;-72
2024/04/23 06:07:17;;;;;;;4.18;1.73;;;8.40;99.90;;;;;;5369117;26;20011;-68
2024/04/23 06:09:43;;;;;;;4.32;2.08;;;9.20;99.90;;;;;;5362335;26;20464;-72
2024/04/23 06:12:08;;;;;;;3.88;1.63;;;9.80;99.90;;;;;;5333017;26;20004;-75
2024/04/23 06:14:40;;;;;;;5.05;2.22;;;10.50;99.90;;;;;;5361119;26;20015;-72
2024/04/23 06:17:22;;;;;;;4.45;1.77;;;11.30;99.90;;;;;;5367490;26;20008;-73
2024/04/23 06:19:50;;;;;;;5.40;1.40;;;12.20;99.90;;;;;;5358640;26;20004;-71
2024/04/23 06:22:24;;;;;;;3.75;1.10;;;12.90;99.70;;;;;;5363792;26;20096;-74
2024/04/23 06:24:52;;;;;;;3.63;1.38;;;13.80;98.10;;;;;;5356266;26;20005;-75
2024/04/23 06:27:22;;;;;;;2.05;1.08;;;14.60;95.90;;;;;;5366388;26;20514;-72
2024/04/23 06:29:48;;;;;;;;;;;15.30;95.10;;;;;;5366488;26;20023;-73
2024/04/23 06:32:14;;;;;;;4.13;1.50;;;15.90;93.40;;;;;;5365518;26;19925;-69
2024/04/23 06:34:40;;;;;;;3.03;1.65;;;16.60;92.90;;;;;;5356948;26;20500;-70
2024/04/23 06:37:06;;;;;;;3.08;1.33;;;17.00;92.10;;;;;;5367909;26;20077;-72
2024/04/23 06:39:31;;;;;;;5.38;1.42;;;17.40;91.10;;;;;;5361291;26;20921;-72
2024/04/23 06:41:58;;;;;;;2.78;1.60;;;17.70;91.00;;;;;;5360726;26;20016;-72
2024/04/23 06:44:24;;;;;;;3.45;1.77;;;18.00;89.30;;;;;;5368832;26;20438;-71
2024/04/23 06:46:50;;;;;;;7.18;1.80;;;18.20;88.60;;;;;;5358484;26;20016;-71
2024/04/23 06:49:15;;;;;;;3.58;1.45;;;18.50;85.70;;;;;;5335147;26;20016;-71
2024/04/23 06:51:41;;;;;;;5.22;2.10;;;18.70;85.20;;;;;;5366537;26;20502;-70
2024/04/23 06:54:06;;;;;;;2.83;2.00;;;18.90;84.50;;;;;;5367254;26;20051;-74
2024/04/23 06:56:32;;;;;;;2.45;1.70;;;19.20;84.10;;;;;;5365832;26;20048;-74
2024/04/23 06:58:58;;;;;;;5.03;2.00;;;18.50;85.20;;;;;;5367694;26;20023;-73
2024/04/23 07:01:23;;;;;;;3.45;2.13;;;19.10;86.70;;;;;;5374021;26;20016;-72
2024/04/23 07:03:49;;;;;;;3.88;1.85;;;19.60;84.70;;;;;;5374989;26;20379;-72
2024/04/23 07:06:14;;;;;;;2.53;1.95;;;19.50;82.90;;;;;;5377529;26;20042;-69
2024/04/23 07:08:40;;;;;;;2.58;1.75;;;18.80;80.40;;;;;;5370954;26;20102;-68
2024/04/23 07:11:05;;;;;;;6.80;1.77;;;18.00;79.90;;;;;;5372567;26;20008;-73
2024/04/23 07:13:31;;;;;;;2.75;1.50;;;17.40;81.20;;;;;;5374865;26;20012;-71
2024/04/23 07:15:56;;;;;;;2.97;1.55;;;16.40;82.40;;;;;;5374887;26;20403;-71
2024/04/23 07:18:22;;;;;;;2.92;1.30;;;15.30;83.20;;;;;;5372952;26;20032;-70
2024/04/23 07:20:47;;;;;;;3.17;1.52;;;14.60;84.90;;;;;;5373037;26;20015;-68
2024/04/23 07:23:13;;;;;;;3.80;1.58;;;13.70;86.70;;;;;;5373181;26;19996;-69
2024/04/23 07:25:38;;;;;;;3.30;1.30;;;13.00;88.70;;;;;;5341481;26;20464;-72
2024/04/23 07:28:04;;;;;;;2.28;1.35;;;12.50;90.00;;;;;;5374441;26;20011;-72
2024/04/23 07:30:30;;;;;;;2.92;1.33;;;12.30;91.00;;;;;;5375111;26;20684;-72
2024/04/23 07:32:55;;;;;;;2.78;1.38;;;12.30;90.90;;;;;;5340783;26;20340;-71
2024/04/23 07:35:22;;;;;;;1.77;1.00;;;11.70;91.00;;;;;;5374250;26;20000;-72
2024/04/23 07:37:47;;;;;;;4.32;1.50;;;11.50;90.80;;;;;;5373276;26;20004;-71
2024/04/23 07:40:13;;;;;;;2.63;1.17;;;11.30;91.10;;;;;;5371814;26;20023;-73
2024/04/23 07:42:38;;;;;;;4.22;2.35;;;11.10;92.00;;;;;;5373063;26;20019;-70
2024/04/23 07:45:05;;;;;;;3.90;1.33;;;11.00;92.10;;;;;;5374239;26;20012;-69
2024/04/23 07:47:30;;;;;;;6.75;1.83;;;11.10;92.50;;;;;;5374599;26;20008;-72
2024/04/23 07:49:56;;;;;;;3.95;0.88;;;11.10;91.90;;;;;;5370987;26;20080;-71
2024/04/23 07:52:21;;;;;;;3.90;1.50;;;11.00;91.20;;;;;;5371938;26;20277;-68
2024/04/23 07:54:50;;;;;;;4.18;1.60;;;10.90;91.00;;;;;;5373545;26;20779;-72
2024/04/23 07:57:16;;;;;;;1.25;0.80;;;10.90;91.40;;;;;;5369719;26;20000;-71
2024/04/23 07:59:42;;;;;;;3.42;1.45;;;10.70;91.20;;;;;;5373534;26;20008;-72
2024/04/23 08:02:08;;;;;;;4.38;1.27;;;10.80;91.20;;;;;;5374670;26;20019;-71
2024/04/23 08:04:33;;;;;;;3.67;1.48;;;10.70;91.60;;;;;;5342485;26;20040;-71
2024/04/23 08:06:59;;;;;;;2.50;1.17;;;10.80;91.00;;;;;;5370669;26;20456;-70
2024/04/23 08:09:24;;;;;;;3.47;1.23;;;10.80;90.80;;;;;;5374088;26;20023;-70
2024/04/23 08:11:50;;;;;;;2.22;0.80;;;10.70;90.40;;;;;;5368918;26;20003;-69
2024/04/23 08:14:15;;;;;;;2.80;1.17;;;10.60;90.40;;;;;;5369031;26;20000;-71
2024/04/23 08:16:41;;;;;;;2.45;1.08;;;10.70;90.30;;;;;;5367026;26;20629;-68
2024/04/23 08:19:07;;;;;;;2.40;0.88;;;10.70;89.90;;;;;;5369549;26;20047;-74
2024/04/23 08:21:36;;;;;;;1.90;0.63;;;10.80;90.80;;;;;;5366574;26;20380;-71
2024/04/23 08:24:02;;;;;;;3.45;1.30;;;11.00;90.30;;;;;;5334047;26;20012;-72
2024/04/23 08:26:28;;;;;;;1.42;0.85;;;11.20;90.00;;;;;;5369019;26;20369;-71
2024/04/23 08:28:54;;;;;;;2.80;0.90;;;11.20;88.60;;;;;;5368708;26;20012;-71
2024/04/23 08:31:20;;;;;;;3.00;1.83;;;11.30;87.80;;;;;;5368869;26;20016;-73
2024/04/23 08:33:45;;;;;;;2.17;0.70;;;11.30;90.00;;;;;;5368548;26;20015;-71
2024/04/23 08:36:11;;;;;;;2.85;0.85;;;11.50;87.80;;;;;;5368944;26;20004;-72
2024/04/23 08:38:36;;;;;;;2.15;0.90;;;11.50;86.80;;;;;;5365151;26;20099;-67
2024/04/23 08:41:04;;;;;;;1.77;0.90;;;11.70;86.00;;;;;;5365987;26;20000;-71
2024/04/23 08:43:38;;;;;;;2.47;1.00;;;11.70;89.10;;;;;;5368323;26;20000;-71
2024/04/23 08:46:05;;;;;;;1.50;0.75;;;11.70;86.70;;;;;;5367122;26;20433;-72
2024/04/23 08:48:33;;;;;;;1.65;0.80;;;11.70;88.80;;;;;;5366653;26;20040;-70
2024/04/23 08:51:00;;;;;;;5.97;1.10;;;11.70;89.00;;;;;;5360488;26;20018;-72
2024/04/23 08:53:27;;;;;;;0.98;0.57;;;11.90;89.20;;;;;;5367135;26;20052;-72
2024/04/23 08:55:59;;;;;;;4.43;0.98;;;11.80;85.10;;;;;;5362968;26;20000;-71
2024/04/23 08:58:25;;;;;;;2.50;0.77;;;11.80;86.20;;;;;;5366509;26;20366;-72
2024/04/23 09:00:56;;;;;;;2.00;0.70;;;11.70;87.20;;;;;;5366673;26;20012;-70
2024/04/23 09:03:27;;;;;;;1.90;0.80;;;11.70;88.10;;;;;;5336238;26;20350;-72
2024/04/23 09:05:53;;;;;;;1.92;0.85;;;11.90;85.90;;;;;;5369565;26;20015;-70
2024/04/23 09:08:21;;;;;;;2.25;0.50;;;11.90;86.20;;;;;;5369225;26;20726;-70
2024/04/23 09:10:47;;;;;;;5.07;1.05;;;11.90;84.90;;;;;;5367006;26;20340;-73
2024/04/23 09:13:13;;;;;;;2.20;0.55;;;12.00;84.60;;;;;;5364501;26;20039;-71
2024/04/23 09:15:39;;;;;;;3.67;0.70;;;11.90;85.40;;;;;;5365692;26;20004;-70
2024/04/23 09:18:06;;;;;;;1.73;0.80;;;11.80;85.70;;;;;;5364656;26;20403;-69
2024/04/23 09:20:32;;;;;;;1.50;0.70;;;11.70;84.30;;;;;;5366272;26;20027;-72
2024/04/23 09:23:01;;;;;;;1.17;0.50;;;11.70;86.20;;;;;;5333735;26;20008;-74
2024/04/23 09:25:36;;;;;;;1.25;0.65;;;11.70;85.20;;;;;;5368968;26;20001;-71
2024/04/23 09:28:03;;;;;;;1.50;0.50;;;11.60;82.90;;;;;;5356275;26;20482;-72
2024/04/23 09:30:29;;;;;;;1.40;0.45;;;11.60;82.80;;;;;;5365521;26;20577;-74
2024/04/23 09:33:00;;;;;;;1.02;0.45;;;11.50;81.70;;;;;;5366680;26;20016;-71
2024/04/23 09:35:25;;;;;;;2.72;1.00;;;11.50;81.60;;;;;;5363538;26;20004;-69
2024/04/23 09:37:51;;;;;;;0.75;0.38;;;11.50;81.70;;;;;;5363559;26;20000;-69
2024/04/23 09:40:17;;;;;;;0.65;0.40;;;11.50;79.80;;;;;;5365898;26;20000;-72
2024/04/23 09:42:42;;;;;;;1.13;0.40;;;11.60;83.50;;;;;;5363299;26;20004;-71
2024/04/23 09:45:11;;;;;;;2.35;0.60;;;11.70;83.10;;;;;;5363497;26;20440;-71
2024/04/23 09:47:45;;;;;;;3.38;0.88;;;12.00;83.40;;;;;;5363054;26;20012;-71
2024/04/23 09:50:11;;;;;;;1.77;0.93;;;12.10;82.80;;;;;;5325162;26;20037;-69
2024/04/23 09:52:37;;;;;;;1.98;0.85;;;12.10;84.50;;;;;;5335467;26;20070;-71
2024/04/23 09:55:03;;;;;;;3.30;0.95;;;12.40;85.90;;;;;;5359259;26;20004;-71
2024/04/23 09:57:29;;;;;;;6.22;0.98;;;12.50;87.40;;;;;;5360549;26;20000;-71
2024/04/23 09:59:54;;;;;;;2.40;0.82;;;12.30;83.70;;;;;;5362492;26;20019;-72
2024/04/23 10:02:27;;;;;;;2.92;1.10;;;12.10;84.80;;;;;;5363558;26;20004;-72
2024/04/23 10:05:04;;;;;;;2.60;0.95;;;11.70;83.70;;;;;;5360032;26;20004;-71
2024/04/23 10:07:36;;;;;;;3.53;0.73;;;11.50;86.10;;;;;;5366381;26;20036;-71
2024/04/23 10:10:05;;;;;;;1.98;0.98;;;11.30;87.30;;;;;;5365848;26;20008;-72
2024/04/23 10:12:34;;;;;;;2.67;1.42;;;11.30;87.90;;;;;;5368387;26;20008;-73
2024/04/23 10:15:10;;;;;;;2.00;0.57;;;11.20;88.70;;;;;;5364467;26;20051;-70
2024/04/23 10:17:47;;;;;;;4.82;1.13;;;11.30;89.20;;;;;;5336026;26;20085;-72
2024/04/23 10:20:20;;;;;;;1.42;0.68;;;11.30;87.90;;;;;;5365103;26;20505;-71
2024/04/23 10:22:46;;;;;;;2.67;0.80;;;11.70;89.40;;;;;;5366058;26;20481;-72
2024/04/23 10:25:13;;;;;;;3.55;1.10;;;11.90;86.40;;;;;;5355433;26;20008;-70
2024/04/23 10:27:40;;;;;;;1.52;0.80;;;12.20;86.90;;;;;;5356678;26;20524;-73
2024/04/23 10:30:08;;;;;;;1.88;0.80;;;12.40;86.00;;;;;;5367586;26;20000;-69
2024/04/23 10:32:35;;;;;;;2.95;0.80;;;12.60;83.60;;;;;;5366634;26;19996;-72
2024/04/23 10:35:03;;;;;;;2.50;0.90;;;12.90;84.80;;;;;;5360963;26;20498;-70
2024/04/23 10:37:30;;;;;;;1.83;0.75;;;13.20;86.00;;;;;;5363656;26;21877;-70
2024/04/23 10:39:57;;;;;;;3.00;0.73;;;13.40;86.80;;;;;;5366256;26;20000;-69
2024/04/23 10:42:24;;;;;;;2.33;0.98;;;13.80;86.40;;;;;;5362756;26;20012;-72
2024/04/23 10:44:51;;;;;;;1.45;1.00;;;13.90;84.90;;;;;;5367811;26;20000;-73
2024/04/23 10:47:17;;;;;;;3.13;1.77;;;13.90;83.20;;;;;;5368188;26;20069;-70
2024/04/23 10:49:42;;;;;;;1.63;0.75;;;13.80;84.00;;;;;;5337270;26;20056;-73
2024/04/23 10:52:08;;;;;;;1.88;1.13;;;13.70;84.40;;;;;;5367751;26;20000;-70
2024/04/23 10:54:34;;;;;;;2.70;1.05;;;13.30;83.50;;;;;;5367593;26;20000;-71
2024/04/23 10:57:02;;;;;;;3.05;0.88;;;13.00;83.50;;;;;;5366042;26;20040;-72
2024/04/23 10:59:31;;;;;;;3.83;1.25;;;12.70;84.00;;;;;;5366934;26;20038;-69
2024/04/23 11:01:58;;;;;;;2.88;0.70;;;12.40;85.60;;;;;;5329435;26;20036;-71
2024/04/23 11:04:39;;;;;;;1.88;1.20;;;12.20;86.00;;;;;;5333672;26;19996;-72
2024/04/23 11:07:05;;;;;;;2.13;0.93;;;11.80;85.40;;;;;;5333790;26;20000;-71
2024/04/23 11:09:36;;;;;;;1.48;0.70;;;11.60;86.00;;;;;;5365645;26;20059;-71
2024/04/23 11:12:02;;;;;;;4.80;0.98;;;11.50;87.10;;;;;;5335879;26;20010;-72
2024/04/23 11:14:35;;;;;;;4.25;1.02;;;11.50;87.20;;;;;;5364435;26;20008;-73
2024/04/23 11:17:05;;;;;;;1.75;0.80;;;11.70;87.50;;;;;;5366557;26;20012;-71
2024/04/23 11:19:47;;;;;;;2.00;0.97;;;12.00;86.40;;;;;;5366259;26;21540;-74
2024/04/23 11:22:15;;;;;;;3.30;1.20;;;12.20;86.70;;;;;;5361273;26;20226;-72
2024/04/23 11:24:54;;;;;;;1.85;1.23;;;12.20;86.80;;;;;;5367495;26;20000;-69
2024/04/23 11:27:20;;;;;;;3.05;1.48;;;12.50;88.00;;;;;;5366406;26;20008;-74
2024/04/23 11:29:48;;;;;;;3.47;1.75;;;12.60;89.10;;;;;;5359622;26;20008;-72
2024/04/23 11:32:14;;;;;;;2.55;1.40;;;12.60;89.00;;;;;;5333560;26;20004;-71
2024/04/23 11:34:44;;;;;;;4.13;1.23;;;12.70;88.80;;;;;;5336052;26;20070;-73
2024/04/23 11:37:10;;;;;;;2.65;1.30;;;12.90;88.70;;;;;;5365335;26;20001;-72
2024/04/23 11:39:36;;;;;;;2.38;1.10;;;12.90;89.00;;;;;;5367371;26;20076;-71
2024/04/23 11:42:07;;;;;;;2.67;1.33;;;12.90;88.10;;;;;;5364719;26;20008;-71
2024/04/23 11:44:33;;;;;;;2.67;1.25;;;12.90;88.20;;;;;;5334405;26;20485;-69
2024/04/23 11:46:58;;;;;;;2.25;1.38;;;13.00;87.10;;;;;;5367954;26;20022;-70
2024/04/23 11:49:25;;;;;;;3.95;1.48;;;13.10;88.90;;;;;;5336130;26;20482;-72
2024/04/23 11:51:53;;;;;;;2.15;1.20;;;13.20;88.10;;;;;;5366610;26;20019;-69
2024/04/23 11:54:24;;;;;;;3.65;1.00;;;13.40;89.30;;;;;;5369248;26;20521;-71
2024/04/23 11:56:51;;;;;;;5.97;1.75;;;13.60;89.00;;;;;;5367766;26;20000;-71
2024/04/23 11:59:20;;;;;;;3.85;1.25;;;13.70;87.00;;;;;;5368856;26;20019;-71
2024/04/23 12:01:47;;;;;;;3.17;1.73;;;13.70;86.10;;;;;;5368640;26;20012;-70
2024/04/23 12:04:16;;;;;;;3.30;1.65;;;13.80;87.60;;;;;;5367026;26;20049;-70
2024/04/23 12:06:44;;;;;;;2.60;1.33;;;13.80;86.10;;;;;;5366666;26;20696;-72
2024/04/23 12:09:14;;;;;;;6.35;1.55;;;13.50;86.20;;;;;;5368437;26;20001;-73
2024/04/23 12:11:40;;;;;;;3.72;1.23;;;13.10;86.00;;;;;;5369662;26;19996;-69
2024/04/23 12:14:10;;;;;;;2.28;1.13;;;13.00;89.10;;;;;;5365478;26;21239;-72
2024/04/23 12:16:40;;;;;;;2.40;1.20;;;12.90;89.30;;;;;;5362788;26;20004;-71
2024/04/23 12:19:05;;;;;;;2.17;1.23;;;13.00;88.70;;;;;;5368467;26;20033;-72
2024/04/23 12:21:31;;;;;;;1.98;1.20;;;12.80;85.60;;;;;;5367829;26;20012;-70
2024/04/23 12:23:57;;;;;;;4.38;1.33;;;12.70;88.50;;;;;;5369754;26;20004;-73
2024/04/23 12:26:24;;;;;;;2.58;1.23;;;12.60;87.60;;;;;;5368872;26;20011;-67
2024/04/23 12:28:52;;;;;;;1.92;1.20;;;12.60;87.50;;;;;;5362813;26;20023;-73
2024/04/23 12:31:17;;;;;;;5.28;1.60;;;12.60;87.80;;;;;;5368361;26;20000;-71
2024/04/23 12:33:43;;;;;;;2.35;1.20;;;12.50;87.00;;;;;;5370105;26;20052;-72
2024/04/23 12:36:11;;;;;;;2.45;1.48;;;12.70;87.00;;;;;;5368716;26;20001;-70
2024/04/23 12:38:43;;;;;;;2.63;1.10;;;12.70;87.10;;;;;;5369328;26;20342;-71
2024/04/23 12:41:11;;;;;;;2.83;1.10;;;12.80;82.90;;;;;;5368743;26;20048;-72
2024/04/23 12:43:36;;;;;;;2.17;1.10;;;12.70;82.00;;;;;;5364832;26;20053;-72
2024/04/23 12:46:02;;;;;;;2.65;1.48;;;12.70;83.30;;;;;;5367356;26;20109;-69
2024/04/23 12:48:27;;;;;;;5.93;1.08;;;12.80;83.80;;;;;;5365763;26;20103;-71
2024/04/23 12:50:53;;;;;;;4.07;0.85;;;12.90;80.70;;;;;;5364022;26;20009;-71
2024/04/23 12:53:19;;;;;;;0.90;0.60;;;12.80;80.80;;;;;;5362390;26;20434;-71
2024/04/23 12:55:45;;;;;;;1.52;0.70;;;12.70;81.80;;;;;;5368209;26;20073;-71
2024/04/23 12:58:10;;;;;;;1.60;0.75;;;12.70;82.70;;;;;;5363734;26;20415;-72